Moscow/Sheretyevo International Airport

Airport
ICAO code: 
UUEE
IATA Code: 
SVO
Summary
ICAO Region: 
EUR
Territory: 
Location: 
Khimki, Moscow Oblast,
Serving: 
Moscow
Elevation: 
622 ft
Coordinates: 
Aerial View: 
55° 58' 16.561" N, 37° 24' 48.744" E
Metar
Observation
UUEE 291430Z 11006MPS 3400 -DZ BR OVC002 04/04 Q0996 R88/290051 NOSIG
Station
Moscow / Sheremet'Ye
Date/Time
2021-11-29 14:30:00
Wind direction
110°
Lowest cloud amount
overcast
Temperature
4°C
Dew point
4°C
Humidity
100%
QNH
996 hPa
Weather condition
n/a

Description

Sheremetyevo International Airport, is an international airport located 29 km north-west of Moscow, Russia. It is a hub for the passenger operations of the Russian international airline Aeroflot, and one of the three major airports serving Moscow along with Domodedovo International Airport and Vnukovo.

Climatology

Humid Continental climate (Köppen climate classification Dfb) - Variable weather patterns and a large seasonal temperature variance. Summers are often warm and humid with frequent thunderstorms and winters can be very cold with frequent snowfall and persistent snow cover.

Runways

Designator Length Width Surface Rops
07L/25R 3550 60 CON Yes/Yes
07R/25L 3700 60 CON Yes/Yes
Airport map: 
Aerial View: 

SKYbrary Partners:

Safety knowledge contributed by: